Flight Track Log - Related Links

Times and Time Zones

All times are in EDT time to prevent confusion due to time zone crossing. See the JZA8792 flight status page for this flight to view local times or setup timezone preferences in your user account.

Time Position Orientation Groundspeed Altitude Reporting Facility
EDT Latitude Longitude Course Direction KTS MPH feet Rate Location/Type
Wed 09:03:16 PM 45.4667 -73.7000 35° Northeast 110 127 1,300  Level Montreal Center
Wed 09:04:16 PM 45.5000 -73.6667 35° Northeast 140 161 2,500 1,150 Climbing Montreal Center
Wed 09:05:16 PM 45.5167 -73.6167 65° Northeast 140 161 3,600 1,100 Climbing Montreal Center
Wed 09:06:16 PM 45.5167 -73.5833 90° East 140 161 4,700 1,100 Climbing Montreal Center
Wed 09:07:16 PM 45.5167 -73.5000 90° East 160 184 5,800 1,050 Climbing Montreal Center
Wed 09:08:16 PM 45.5000 -73.4333 110° East 190 219 6,800 1,200 Climbing Montreal Center
Wed 09:09:16 PM 45.5000 -73.3667 90° East 190 219 8,200 1,150 Climbing Montreal Center
Wed 09:10:16 PM 45.4833 -73.2667 103° East 200 230 9,100 1,050 Climbing Montreal Center
Wed 09:11:16 PM 45.4667 -73.2000 110° East 210 242 10,300 1,100 Climbing Montreal Center
Wed 09:12:16 PM 45.4667 -73.1000 90° East 210 242 11,300 1,000 Climbing Montreal Center
Wed 09:13:16 PM 45.4667 -73.0333 90° East 210 242 12,300 900 Climbing Montreal Center
Wed 09:14:16 PM 45.4667 -72.9333 90° East 220 253 13,100 800 Climbing Montreal Center
Wed 09:15:16 PM 45.4667 -72.8667 90° East 220 253 13,900 800 Climbing Montreal Center
Wed 09:16:16 PM 45.4667 -72.7667 90° East 220 253 14,700 800 Climbing Montreal Center
Wed 09:17:16 PM 45.4667 -72.7000 90° East 210 242 15,500 800 Climbing Montreal Center
Wed 09:18:16 PM 45.4667 -72.6000 90° East 210 242 16,300 700 Climbing Montreal Center
Wed 09:19:16 PM 45.4667 -72.5000 90° East 220 253 16,900 650 Climbing Montreal Center
Wed 09:20:16 PM 45.4667 -72.4000 90° East 220 253 17,600 550 Climbing Montreal Center
Wed 09:21:16 PM 45.4667 -72.3333 90° East 220 253 18,000 500 Climbing Montreal Center
Wed 09:22:16 PM 45.4667 -72.2333 90° East 220 253 18,600 550 Climbing Montreal Center
Wed 09:23:16 PM 45.4667 -72.1500 90° East 220 253 19,100 500 Climbing Montreal Center
Wed 09:24:16 PM 45.4667 -72.0667 90° East 230 265 19,600 450 Climbing Montreal Center
Wed 09:25:16 PM 45.4667 -71.9833 90° East 230 265 20,000 400 Climbing Montreal Center
Wed 09:26:16 PM 45.4667 -71.8833 90° East 230 265 20,400 400 Climbing Montreal Center
Wed 09:27:16 PM 45.4833 -71.7833 77° East 240 276 20,800 300 Climbing Montreal Center
Wed 09:28:16 PM 45.4667 -71.6833 103° East 240 276 21,000 100 Climbing Montreal Center
Wed 09:29:16 PM 45.4667 -71.6000 90° East 250 288 21,000  Level Montreal Center
Wed 09:30:16 PM 45.4667 -71.4833 90° East 260 299 21,000  Level Montreal Center
Wed 09:31:16 PM 45.4833 -71.3833 77° East 270 311 21,000  Level Montreal Center
Wed 09:32:16 PM 45.4667 -71.2667 101° East 270 311 21,000  Level Montreal Center
Wed 09:33:16 PM 45.4667 -71.1667 90° East 270 311 21,000  Level Montreal Center
Wed 09:34:22 PM 45.4797 -71.0797 78° East 270 311 21,000  Level Boston Center
Wed 09:35:23 PM 45.4789 -70.9717 91° East 271 312 21,000  Level Boston Center
Wed 09:36:16 PM 45.4667 -70.8500 98° East 270 311 21,000  Level Montreal Center
Wed 09:37:16 PM 45.4667 -70.7333 90° East 280 322 21,000  Level Montreal Center
Wed 09:38:16 PM 45.4667 -70.6167 90° East 270 311 21,000  Level Montreal Center
Wed 09:39:16 PM 45.4667 -70.5167 90° East 270 311 21,000  Level Montreal Center
Wed 09:40:16 PM 45.4667 -70.4000 90° East 270 311 21,000  Level Montreal Center
Wed 09:41:16 PM 45.4667 -70.3000 90° East 270 311 21,000  Level Montreal Center
Wed 09:42:16 PM 45.4667 -70.1833 90° East 270 311 21,000  Level Montreal Center
Wed 09:43:16 PM 45.4667 -70.0833 90° East 270 311 21,000  Level Montreal Center
Wed 09:44:16 PM 45.4500 -69.9667 101° East 280 322 21,000  Level Montreal Center
Wed 09:45:16 PM 45.4500 -69.8667 90° East 270 311 21,000  Level Montreal Center
Wed 09:46:16 PM 45.4667 -69.7500 78° East 270 311 21,000  Level Montreal Center
Wed 09:47:16 PM 45.4500 -69.6500 103° East 270 311 21,000  Level Montreal Center
Wed 09:48:16 PM 45.4500 -69.5333 90° East 270 311 21,000  Level Montreal Center
Wed 09:48:59 PM 45.4333 -69.5000 125° Southeast 270 311 21,000  Level Moncton Center
Wed 09:49:59 PM 45.4500 -69.4000 77° East 270 311 21,000  Level Moncton Center
Wed 09:50:37 PM 45.4589 -69.3108 82° East 274 315 21,000  Level Boston Center
Wed 09:51:38 PM 45.4569 -69.2008 91° East 274 315 21,000  Level Boston Center
Wed 09:52:39 PM 45.4544 -69.0903 92° East 274 315 21,000  Level Boston Center
Wed 09:53:40 PM 45.4511 -68.9803 92° East 274 315 21,000  Level Boston Center
Wed 09:54:41 PM 45.4497 -68.8706 91° East 274 315 21,000  Level Boston Center
Wed 09:55:42 PM 45.4472 -68.7600 92° East 275 316 21,000  Level Boston Center
Wed 09:56:43 PM 45.4431 -68.6517 93° East 275 316 21,000  Level Boston Center
Wed 09:57:43 PM 45.4411 -68.5433 91° East 274 315 21,000  Level Boston Center
Wed 09:58:44 PM 45.4383 -68.4336 92° East 274 315 21,000  Level Boston Center
Wed 09:59:45 PM 45.4353 -68.3256 92° East 274 315 21,000  Level Boston Center
Wed 10:00:46 PM 45.4331 -68.2158 92° East 274 315 21,000  Level Boston Center
Wed 10:01:47 PM 45.4294 -68.1050 93° East 275 316 21,000 -246 Level Boston Center
Wed 10:02:48 PM 45.4250 -67.9942 93° East 277 319 20,500 -492 Descending Boston Center
Wed 10:03:49 PM 45.4219 -67.8756 92° East 292 336 20,000 -492 Descending Boston Center
Wed 10:04:50 PM 45.4175 -67.7583 93° East 293 337 19,500 -492 Descending Boston Center
Wed 10:05:51 PM 45.4139 -67.6417 92° East 293 337 19,000 -558 Descending Boston Center
Wed 10:06:59 PM 45.4000 -67.5000 98° East 300 345 18,300 -375 Descending Moncton Center
Wed 10:07:59 PM 45.3833 -67.3667 100° East 290 334 18,200 -300 Descending Moncton Center
Wed 10:08:59 PM 45.3833 -67.2500 90° East 290 334 17,700 -900 Descending Moncton Center
Wed 10:09:59 PM 45.3833 -67.1333 90° East 300 345 16,400 -1,400 Descending Moncton Center
Wed 10:10:59 PM 45.3833 -67.0167 90° East 310 357 14,900 -1,550 Descending Moncton Center
Wed 10:11:59 PM 45.3833 -66.9000 90° East 310 357 13,300 -1,500 Descending Moncton Center
Wed 10:12:59 PM 45.3667 -66.7833 101° East 300 345 11,900 -1,450 Descending Moncton Center
Wed 10:13:59 PM 45.3667 -66.6667 90° East 300 345 10,400 -1,400 Descending Moncton Center
Wed 10:14:59 PM 45.3667 -66.5333 90° East 280 322 9,100 -1,350 Descending Moncton Center
Wed 10:15:59 PM 45.3667 -66.4500 90° East 270 311 7,700 -1,300 Descending Moncton Center
Wed 10:16:59 PM 45.3667 -66.3500 90° East 260 299 6,500 -1,250 Descending Moncton Center
Wed 10:17:59 PM 45.4000 -66.2333 68° East 250 288 5,200 -1,200 Descending Moncton Center
Wed 10:18:59 PM 45.4000 -66.1667 90° East 240 276 4,100 -1,000 Descending Moncton Center
Wed 10:19:59 PM 45.4000 -66.0667 90° East 200 230 3,200 -900 Descending Moncton Center
Wed 10:20:59 PM 45.3667 -66.0167 133° Southeast 170 196 2,300 -850 Descending Moncton Center
Wed 10:21:59 PM 45.3500 -65.9667 115° Southeast 150 173 1,500 -750 Descending Moncton Center
Wed 10:22:59 PM 45.3333 -65.9167 115° Southeast 130 150 800 -500 Descending Moncton Center
Wed 10:23:59 PM 45.3167 -65.9000 145° Southeast 120 138 500 -300 Descending Moncton Center

Login

Don't have an account? Register now (free) for customized features, flight alerts, and more!